This is the latest recevied weather packets stored in our database for station/object KA6AKH-13. If no packets are shown the sender has not sent any weather packets the latest 10 day(s).
| Time | Temp. | Humidity | Pressure | Rain* | Wind** | Luminosity | Snow |
|---|---|---|---|---|---|---|---|
| 1778057750 | 20° C | 70% | 1009.8 hPa | 0 mm | - | - | - |
| 1778057679 | 20° C | 70% | 1009.8 hPa | 0 mm | - | - | - |
| 1778057079 | 20° C | 69% | 1009.9 hPa | 0 mm | - | - | - |
| 1778056449 | 20° C | 68% | 1009.8 hPa | 0 mm | - | - | - |
| 1778055219 | 20° C | 67% | 1009.8 hPa | 0 mm | - | - | - |
| 1778054619 | 20.56° C | 66% | 1009.8 hPa | 0 mm | - | - | - |
| 1778054020 | 20.56° C | 66% | 1009.7 hPa | 0 mm | - | - | - |
| 1778053389 | 20.56° C | 66% | 1009.6 hPa | 0 mm | - | - | - |
| 1778052789 | 20.56° C | 65% | 1009.6 hPa | 0 mm | - | - | - |
| 1778051529 | 20.56° C | 64% | 1009.9 hPa | 0 mm | - | - | - |
| 1778049009 | 21.67° C | 60% | 1010.1 hPa | 0 mm | - | - | - |
| 1778048380 | 21.67° C | 59% | 1010 hPa | 0 mm | - | - | - |
| 1778047748 | 22.22° C | 59% | 1010 hPa | 0 mm | - | - | - |
| 1778046489 | 22.22° C | 57% | 1010.1 hPa | 0 mm | - | - | - |
| 1778045888 | 22.22° C | 57% | 1010.2 hPa | 0 mm | - | - | - |
| 1778045289 | 22.78° C | 57% | 1010.3 hPa | 0 mm | - | - | - |
| 1778042799 | 22.78° C | 55% | 1010.5 hPa | 0 mm | - | - | - |
| 1778042697 | 26.67° C | 28% | 1009.3 hPa | 0 mm | - | - | - |
| 1778042199 | 26.67° C | 28% | 1009.3 hPa | 0 mm | - | - | - |
| 1778023497 | 27.22° C | 30% | 1009 hPa | 0 mm | - | - | - |
| 1778023167 | 27.22° C | 29% | 1009 hPa | 0 mm | - | - | - |
| 1778022897 | 27.22° C | 29% | 1009 hPa | 0 mm | - | - | - |
| 1778022267 | 27.22° C | 28% | 1009 hPa | 0 mm | - | - | - |
| 1778021764 | 27.78° C | 27% | 1008.9 hPa | 0 mm | - | - | - |
| 1778021637 | 27.78° C | 27% | 1008.9 hPa | 0 mm | - | - | - |
* Rain latest hour (hover to see other rain measurements)
** Current wind speed in m/s (hover to see current wind gust speed)